createdAt,value
2023-04-09T00:00:34.897Z,12.57
2023-04-09T00:03:37.733Z,16.67
2023-04-09T00:06:40.046Z,13.70
2023-04-09T00:09:42.312Z,13.20
2023-04-09T00:12:44.582Z,14.17
2023-04-09T00:15:46.786Z,14.93
2023-04-09T00:18:49.231Z,11.65
2023-04-09T00:21:52.558Z,14.52
2023-04-09T00:24:54.821Z,12.73
2023-04-09T00:27:57.273Z,12.20
2023-04-09T00:30:59.682Z,11.63
2023-04-09T00:34:01.993Z,12.82
2023-04-09T00:37:04.439Z,12.48
2023-04-09T00:40:06.971Z,11.57
2023-04-09T00:43:09.221Z,14.87
2023-04-09T00:46:11.614Z,13.25
2023-04-09T00:49:13.971Z,15.88
2023-04-09T00:52:16.302Z,9.93
2023-04-09T00:55:18.693Z,12.80
2023-04-09T00:58:21.552Z,13.90
2023-04-09T01:01:23.761Z,11.73
2023-04-09T01:04:26.107Z,9.98
2023-04-09T01:08:01.136Z,14.38
2023-04-09T01:11:18.584Z,10.07
2023-04-09T01:14:32.763Z,16.10
2023-04-09T01:17:46.777Z,13.23
2023-04-09T01:21:02.861Z,13.85
2023-04-09T01:24:11.633Z,10.30
2023-04-09T01:27:17.694Z,13.60
2023-04-09T01:30:29.471Z,10.90
2023-04-09T01:33:32.409Z,15.82
2023-04-09T01:36:35.837Z,17.30
2023-04-09T01:39:39.099Z,11.88
2023-04-09T01:42:41.433Z,11.98
2023-04-09T01:45:44.384Z,10.70
2023-04-09T01:48:46.968Z,10.25
2023-04-09T01:51:49.440Z,13.00
2023-04-09T01:54:51.691Z,13.80
2023-04-09T01:57:53.931Z,17.27
2023-04-09T02:01:00.121Z,12.83
2023-04-09T02:04:08.135Z,12.70
2023-04-09T02:07:14.118Z,12.15
2023-04-09T02:10:17.668Z,12.05
2023-04-09T02:13:22.219Z,14.10
2023-04-09T02:16:25.758Z,13.47
2023-04-09T02:19:40.509Z,15.02
2023-04-09T02:22:42.762Z,12.95
2023-04-09T02:25:44.917Z,11.70
2023-04-09T02:28:47.098Z,11.73
2023-04-09T02:31:50.791Z,12.57
2023-04-09T02:34:52.939Z,11.82
2023-04-09T02:37:55.736Z,14.90
2023-04-09T02:40:58.076Z,12.40
2023-04-09T02:44:00.229Z,13.07
2023-04-09T02:47:03.290Z,10.20
2023-04-09T02:50:06.167Z,14.55
2023-04-09T02:53:10.060Z,12.25
2023-04-09T02:56:12.400Z,10.95
2023-04-09T02:59:14.622Z,11.02
2023-04-09T03:02:17.137Z,9.07
2023-04-09T03:05:19.353Z,14.55
2023-04-09T03:08:21.504Z,10.50
2023-04-09T03:11:23.766Z,11.10
2023-04-09T03:14:26.008Z,12.30
2023-04-09T03:17:29.220Z,14.57
2023-04-09T03:20:31.381Z,13.05
2023-04-09T03:23:35.217Z,13.23
2023-04-09T03:26:38.085Z,12.80
2023-04-09T03:29:42.061Z,11.60
2023-04-09T03:32:44.585Z,15.23
2023-04-09T03:35:48.620Z,13.60
2023-04-09T03:38:53.392Z,11.93
2023-04-09T03:42:01.927Z,14.40
2023-04-09T03:45:10.510Z,12.20
2023-04-09T03:48:17.601Z,11.13
2023-04-09T03:51:20.201Z,10.70
2023-04-09T03:54:31.652Z,12.75
2023-04-09T03:57:34.975Z,13.90
2023-04-09T04:00:38.565Z,16.52
2023-04-09T04:04:07.153Z,13.10
2023-04-09T04:07:13.862Z,9.60
2023-04-09T04:10:22.692Z,11.93
2023-04-09T04:13:25.118Z,13.30
2023-04-09T04:16:32.598Z,8.55
2023-04-09T04:19:35.754Z,12.43
2023-04-09T04:22:38.165Z,13.32
2023-04-09T04:25:41.355Z,14.32
2023-04-09T04:28:45.801Z,13.70
2023-04-09T04:31:58.476Z,12.88
2023-04-09T04:35:06.734Z,9.67
2023-04-09T04:38:09.176Z,11.38
2023-04-09T04:41:13.859Z,11.18
2023-04-09T04:44:21.229Z,11.27
2023-04-09T04:47:27.020Z,13.15
2023-04-09T04:50:29.304Z,10.23
2023-04-09T04:53:39.064Z,8.90
2023-04-09T04:56:45.870Z,11.65
2023-04-09T05:00:14.528Z,10.35
2023-04-09T05:03:17.104Z,11.85
2023-04-09T05:06:31.563Z,15.17
2023-04-09T05:09:36.387Z,10.55
2023-04-09T05:12:43.621Z,11.45
2023-04-09T05:15:48.198Z,11.88
2023-04-09T05:18:51.531Z,11.88
2023-04-09T05:21:53.976Z,12.33
2023-04-09T05:24:57.965Z,12.63
2023-04-09T05:28:01.312Z,13.45
2023-04-09T05:31:04.624Z,12.45
2023-04-09T05:34:09.178Z,13.18
2023-04-09T05:37:16.425Z,13.47
2023-04-09T05:40:24.230Z,11.82
2023-04-09T05:43:28.125Z,9.68
2023-04-09T05:46:31.500Z,11.65
2023-04-09T05:49:35.355Z,11.82
2023-04-09T05:52:43.693Z,12.60
2023-04-09T05:55:51.510Z,14.50
2023-04-09T05:58:57.343Z,9.85
2023-04-09T06:01:59.763Z,10.13
2023-04-09T06:05:02.186Z,13.75
2023-04-09T06:08:04.761Z,10.23
2023-04-09T06:11:10.539Z,11.57
2023-04-09T06:14:16.551Z,11.55
2023-04-09T06:17:18.784Z,9.13
2023-04-09T06:20:21.508Z,13.02
2023-04-09T06:23:24.102Z,14.60
2023-04-09T06:26:26.395Z,8.57
2023-04-09T06:29:28.695Z,15.27
2023-04-09T06:32:33.637Z,15.27
2023-04-09T06:35:40.079Z,11.95
2023-04-09T06:38:42.233Z,12.53
2023-04-09T06:41:44.430Z,9.43
2023-04-09T06:44:58.898Z,9.35
2023-04-09T06:48:01.183Z,11.07
2023-04-09T06:51:03.531Z,9.95
2023-04-09T06:54:05.754Z,10.80
2023-04-09T06:57:08.522Z,9.48
2023-04-09T07:00:11.061Z,11.85
2023-04-09T07:03:13.435Z,9.57
2023-04-09T07:06:15.797Z,9.60
2023-04-09T07:09:18.606Z,8.13
2023-04-09T07:12:33.606Z,7.28
2023-04-09T07:15:35.974Z,9.15
2023-04-09T07:18:38.225Z,5.85
2023-04-09T07:21:40.592Z,5.72
2023-04-09T07:24:42.785Z,8.40
2023-04-09T07:27:45.015Z,7.75
2023-04-09T07:30:47.253Z,9.43
2023-04-09T07:33:49.511Z,10.02
2023-04-09T07:36:52.261Z,8.18
2023-04-09T07:39:54.446Z,7.23
2023-04-09T07:42:58.159Z,9.65
2023-04-09T07:46:00.473Z,6.95
2023-04-09T07:49:02.738Z,7.93
2023-04-09T07:52:05.641Z,7.47
2023-04-09T07:55:07.947Z,7.27
2023-04-09T07:58:10.235Z,5.07
2023-04-09T08:01:12.479Z,6.50
2023-04-09T08:04:14.894Z,6.85
2023-04-09T08:07:17.159Z,7.30
2023-04-09T08:10:19.502Z,7.37
2023-04-09T08:13:23.234Z,8.48
2023-04-09T08:16:25.579Z,8.43
2023-04-09T08:19:27.836Z,8.55
2023-04-09T08:22:30.598Z,8.90
2023-04-09T08:25:32.756Z,9.17
2023-04-09T08:28:34.927Z,7.50
2023-04-09T08:31:37.596Z,9.40
2023-04-09T08:34:39.858Z,10.10
2023-04-09T08:37:43.185Z,8.40
2023-04-09T08:40:45.482Z,9.60
2023-04-09T08:43:57.624Z,8.60
2023-04-09T08:47:00.585Z,11.10
2023-04-09T08:50:02.831Z,9.02
2023-04-09T08:53:06.153Z,9.93
2023-04-09T08:56:08.389Z,8.70
2023-04-09T08:59:10.564Z,8.43
2023-04-09T09:02:12.931Z,10.00
2023-04-09T09:05:15.393Z,10.65
2023-04-09T09:08:24.586Z,9.05
2023-04-09T09:11:27.293Z,8.30
2023-04-09T09:14:33.114Z,9.30
2023-04-09T09:17:53.008Z,9.45
2023-04-09T09:21:09.622Z,8.63
2023-04-09T09:24:18.116Z,10.48
2023-04-09T09:27:33.416Z,8.10
2023-04-09T09:30:36.645Z,7.82
2023-04-09T09:33:39.238Z,7.43
2023-04-09T09:36:41.439Z,8.98
2023-04-09T09:39:46.622Z,9.18
2023-04-09T09:42:56.008Z,7.90
2023-04-09T09:45:58.406Z,9.02
2023-04-09T09:49:00.749Z,8.65
2023-04-09T09:52:03.476Z,9.18
2023-04-09T09:55:06.577Z,7.80
2023-04-09T09:58:12.173Z,9.73
2023-04-09T10:01:18.314Z,10.43
2023-04-09T10:04:21.408Z,8.55
2023-04-09T10:07:24.155Z,12.98
2023-04-09T10:10:27.337Z,10.65
2023-04-09T10:13:32.432Z,9.97
2023-04-09T10:16:35.531Z,9.93
2023-04-09T10:19:40.388Z,11.98
2023-04-09T10:22:44.737Z,8.38
2023-04-09T10:25:47.009Z,9.43
2023-04-09T10:29:05.294Z,8.87
2023-04-09T10:32:07.625Z,9.18
2023-04-09T10:35:09.831Z,9.57
2023-04-09T10:38:14.148Z,9.93
2023-04-09T10:41:25.300Z,10.18
2023-04-09T10:44:28.223Z,9.90
2023-04-09T10:47:34.512Z,10.10
2023-04-09T10:50:37.027Z,8.95
2023-04-09T10:53:39.256Z,9.27
2023-04-09T10:57:01.863Z,10.88
2023-04-09T11:00:04.173Z,10.33
2023-04-09T11:03:13.505Z,10.63
2023-04-09T11:06:18.316Z,11.05
2023-04-09T11:09:20.562Z,7.65
2023-04-09T11:12:22.781Z,11.13
2023-04-09T11:15:25.078Z,9.67
2023-04-09T11:18:28.486Z,9.45
2023-04-09T11:21:31.512Z,9.63
2023-04-09T11:24:43.154Z,8.88
2023-04-09T11:27:47.009Z,10.18
2023-04-09T11:30:52.588Z,9.63
2023-04-09T11:33:54.782Z,10.48
2023-04-09T11:36:59.072Z,10.38
2023-04-09T11:40:01.274Z,10.98
2023-04-09T11:43:03.657Z,11.15
2023-04-09T11:46:08.042Z,10.63
2023-04-09T11:49:10.370Z,8.50
2023-04-09T11:52:13.170Z,9.07
2023-04-09T11:55:25.223Z,11.85
2023-04-09T11:58:28.040Z,9.68
2023-04-09T12:01:33.723Z,8.53
2023-04-09T12:04:36.310Z,10.48
2023-04-09T12:07:39.639Z,8.65
2023-04-09T12:10:43.251Z,10.48
2023-04-09T12:13:45.873Z,11.30
2023-04-09T12:16:51.113Z,9.50
2023-04-09T12:19:53.298Z,10.02
2023-04-09T12:22:56.060Z,10.30
2023-04-09T12:26:02.298Z,11.23
2023-04-09T12:29:04.843Z,9.52
2023-04-09T12:32:07.164Z,9.10
2023-04-09T12:35:09.442Z,9.48
2023-04-09T12:38:11.993Z,9.57
2023-04-09T12:41:14.318Z,10.55
2023-04-09T12:44:16.589Z,10.07
2023-04-09T12:47:19.297Z,9.70
2023-04-09T12:50:21.668Z,9.60
2023-04-09T12:53:23.878Z,9.30
2023-04-09T12:56:27.030Z,10.30
2023-04-09T12:59:30.479Z,11.00
2023-04-09T13:02:32.915Z,9.83
2023-04-09T13:05:37.995Z,10.48
2023-04-09T13:08:40.328Z,11.18
2023-04-09T13:11:42.525Z,10.10
2023-04-09T13:14:46.674Z,11.32
2023-04-09T13:17:48.962Z,10.27
2023-04-09T13:20:51.449Z,10.52
2023-04-09T13:23:53.654Z,9.43
2023-04-09T13:26:55.860Z,10.05
2023-04-09T13:29:58.201Z,11.55
2023-04-09T13:33:00.868Z,9.17
2023-04-09T13:36:03.531Z,9.48
2023-04-09T13:39:06.050Z,9.30
2023-04-09T13:42:13.688Z,9.85
2023-04-09T13:45:16.775Z,10.95
2023-04-09T13:48:19.001Z,12.60
2023-04-09T13:51:22.096Z,9.13
2023-04-09T13:54:24.306Z,9.43
2023-04-09T13:57:27.383Z,11.30
2023-04-09T14:00:29.570Z,9.93
2023-04-09T14:03:31.922Z,10.00
2023-04-09T14:06:34.183Z,8.00
2023-04-09T14:09:36.484Z,10.82
2023-04-09T14:12:38.929Z,8.68
2023-04-09T14:15:41.792Z,9.48
2023-04-09T14:18:44.024Z,10.43
2023-04-09T14:21:46.341Z,9.20
2023-04-09T14:24:48.584Z,11.05
2023-04-09T14:27:50.913Z,14.43
2023-04-09T14:30:53.123Z,10.05
2023-04-09T14:33:55.375Z,9.60
2023-04-09T14:36:57.623Z,10.60
2023-04-09T14:39:59.814Z,11.75
2023-04-09T14:43:02.017Z,9.75
2023-04-09T14:46:06.455Z,10.68
2023-04-09T14:49:08.778Z,8.07
2023-04-09T14:52:11.032Z,9.73
2023-04-09T14:55:13.767Z,10.40
2023-04-09T14:58:16.655Z,8.75
2023-04-09T15:01:18.929Z,8.60
2023-04-09T15:04:21.363Z,9.83
2023-04-09T15:07:25.148Z,8.60
2023-04-09T15:10:27.735Z,9.32
2023-04-09T15:13:30.175Z,10.98
2023-04-09T15:16:33.446Z,10.32
2023-04-09T15:19:35.940Z,10.43
2023-04-09T15:22:38.159Z,11.63
2023-04-09T15:25:40.333Z,10.45
2023-04-09T15:28:42.596Z,9.50
2023-04-09T15:31:44.869Z,9.93
2023-04-09T15:34:47.131Z,9.93
2023-04-09T15:37:49.602Z,9.88
2023-04-09T15:40:52.367Z,11.32
2023-04-09T15:43:54.644Z,10.93
2023-04-09T15:46:56.925Z,11.65
2023-04-09T15:49:59.271Z,13.30
2023-04-09T15:53:01.482Z,9.75
2023-04-09T15:56:04.238Z,8.13
2023-04-09T15:59:08.109Z,11.60
2023-04-09T16:02:10.490Z,8.88
2023-04-09T16:05:12.780Z,11.97
2023-04-09T16:08:14.957Z,13.50
2023-04-09T16:11:17.765Z,11.77
2023-04-09T16:14:20.007Z,9.98
2023-04-09T16:17:22.378Z,12.20
2023-04-09T16:20:24.610Z,9.53
2023-04-09T16:23:29.945Z,11.40
2023-04-09T16:26:32.756Z,10.60
2023-04-09T16:29:35.008Z,12.60
2023-04-09T16:32:37.259Z,11.85
2023-04-09T16:35:39.897Z,10.93
2023-04-09T16:38:42.194Z,9.88
2023-04-09T16:41:44.624Z,12.50
2023-04-09T16:44:46.819Z,10.27
2023-04-09T16:47:51.423Z,12.13
2023-04-09T16:50:54.917Z,10.17
2023-04-09T16:53:57.147Z,10.43
2023-04-09T16:56:59.389Z,10.77
2023-04-09T17:00:01.713Z,10.23
2023-04-09T17:03:04.428Z,11.85
2023-04-09T17:06:06.835Z,12.80
2023-04-09T17:09:09.463Z,11.30
2023-04-09T17:12:11.705Z,11.02
2023-04-09T17:15:14.247Z,11.48
2023-04-09T17:18:16.510Z,10.93
2023-04-09T17:21:18.685Z,10.77
2023-04-09T17:24:20.884Z,15.88
2023-04-09T17:27:23.115Z,10.57
2023-04-09T17:30:25.854Z,11.82
2023-04-09T17:33:28.141Z,11.93
2023-04-09T17:36:31.663Z,11.53
2023-04-09T17:39:34.020Z,10.15
2023-04-09T17:42:36.267Z,14.02
2023-04-09T17:45:38.522Z,10.85
2023-04-09T17:48:41.696Z,11.98
2023-04-09T17:51:43.956Z,10.63
2023-04-09T17:54:46.750Z,11.82
2023-04-09T17:57:49.019Z,13.32
2023-04-09T18:00:52.948Z,12.20
2023-04-09T18:03:55.545Z,11.93
2023-04-09T18:06:57.909Z,14.70
2023-04-09T18:10:01.182Z,9.75
2023-04-09T18:13:04.820Z,15.65
2023-04-09T18:16:10.772Z,14.13
2023-04-09T18:19:13.180Z,10.85
2023-04-09T18:22:15.535Z,17.50
2023-04-09T18:25:17.865Z,11.82
2023-04-09T18:28:20.111Z,12.25
2023-04-09T18:31:22.513Z,13.23
2023-04-09T18:34:25.805Z,12.32
2023-04-09T18:37:28.014Z,13.27
2023-04-09T18:40:30.379Z,11.00
2023-04-09T18:43:32.598Z,11.73
2023-04-09T18:46:34.926Z,15.13
2023-04-09T18:49:37.535Z,11.85
2023-04-09T18:52:39.739Z,13.03
2023-04-09T18:55:41.942Z,12.40
2023-04-09T18:58:44.165Z,13.85
2023-04-09T19:01:46.402Z,12.65
2023-04-09T19:04:48.898Z,13.07
2023-04-09T19:07:51.139Z,14.47
2023-04-09T19:10:53.697Z,11.27
2023-04-09T19:13:56.138Z,15.52
2023-04-09T19:16:58.836Z,14.75
2023-04-09T19:20:01.147Z,14.18
2023-04-09T19:23:03.546Z,13.93
2023-04-09T19:26:06.287Z,16.65
2023-04-09T19:29:08.698Z,13.70
2023-04-09T19:32:13.372Z,13.88
2023-04-09T19:35:15.924Z,12.20
2023-04-09T19:38:18.542Z,14.63
2023-04-09T19:41:20.790Z,16.30
2023-04-09T19:44:23.109Z,12.45
2023-04-09T19:47:26.662Z,12.90
2023-04-09T19:50:48.483Z,13.65
2023-04-09T19:53:50.685Z,16.20
2023-04-09T19:56:52.933Z,15.52
2023-04-09T19:59:55.595Z,15.38
2023-04-09T20:02:58.030Z,13.55
2023-04-09T20:06:00.986Z,12.35
2023-04-09T20:09:03.353Z,15.60
2023-04-09T20:12:08.652Z,17.33
2023-04-09T20:15:11.161Z,16.02
2023-04-09T20:18:13.381Z,22.38
2023-04-09T20:21:15.581Z,16.38
2023-04-09T20:24:17.939Z,14.63
2023-04-09T20:27:20.154Z,15.80
2023-04-09T20:30:22.734Z,13.45
2023-04-09T20:33:25.047Z,11.68
2023-04-09T20:36:27.502Z,16.23
2023-04-09T20:39:31.251Z,16.80
2023-04-09T20:42:33.544Z,15.90
2023-04-09T20:45:35.941Z,20.05
2023-04-09T20:48:38.185Z,15.18
2023-04-09T20:51:40.626Z,13.75
2023-04-09T20:54:43.154Z,13.13
2023-04-09T20:57:45.433Z,15.93
2023-04-09T21:00:47.676Z,14.10
2023-04-09T21:03:50.178Z,14.32
2023-04-09T21:06:52.511Z,13.52
2023-04-09T21:09:54.808Z,10.63
2023-04-09T21:12:57.010Z,13.80
2023-04-09T21:15:59.233Z,14.98
2023-04-09T21:19:06.924Z,15.60
2023-04-09T21:22:09.253Z,18.10
2023-04-09T21:25:12.715Z,18.27
2023-04-09T21:28:16.786Z,21.08
2023-04-09T21:31:19.229Z,16.92
2023-04-09T21:34:21.607Z,18.83
2023-04-09T21:37:24.234Z,17.15
2023-04-09T21:40:26.436Z,17.50
2023-04-09T21:43:29.284Z,22.00
2023-04-09T21:46:31.549Z,16.25
2023-04-09T21:49:34.388Z,15.55
2023-04-09T21:52:37.437Z,14.63
2023-04-09T21:55:39.731Z,13.97
2023-04-09T21:58:41.984Z,15.85
2023-04-09T22:01:44.801Z,13.65
2023-04-09T22:04:47.187Z,19.38
2023-04-09T22:07:49.413Z,15.68
2023-04-09T22:10:51.596Z,19.60
2023-04-09T22:13:54.193Z,18.95
2023-04-09T22:17:01.614Z,18.25
2023-04-09T22:20:04.919Z,19.08
2023-04-09T22:23:08.708Z,14.93
2023-04-09T22:26:11.025Z,18.20
2023-04-09T22:29:13.563Z,16.83
2023-04-09T22:32:15.958Z,15.63
2023-04-09T22:35:18.674Z,21.42
2023-04-09T22:38:21.315Z,16.05
2023-04-09T22:41:23.546Z,18.50
2023-04-09T22:44:25.786Z,19.73
2023-04-09T22:47:27.998Z,19.35
2023-04-09T22:50:30.218Z,19.02
2023-04-09T22:53:32.416Z,20.13
2023-04-09T22:56:34.675Z,16.87
2023-04-09T22:59:40.269Z,21.25
2023-04-09T23:02:43.404Z,20.75
2023-04-09T23:05:45.797Z,19.70
2023-04-09T23:08:48.012Z,15.93
2023-04-09T23:11:50.491Z,24.03
2023-04-09T23:14:53.689Z,23.92
2023-04-09T23:17:56.215Z,16.92
2023-04-09T23:20:58.494Z,14.75
2023-04-09T23:24:00.708Z,22.08
2023-04-09T23:27:02.998Z,23.20
2023-04-09T23:30:05.898Z,22.00
2023-04-09T23:33:08.231Z,21.00
2023-04-09T23:36:10.847Z,19.75
2023-04-09T23:39:13.052Z,23.75
2023-04-09T23:42:15.540Z,23.77
2023-04-09T23:45:17.862Z,17.23
2023-04-09T23:48:20.025Z,18.42
2023-04-09T23:51:22.211Z,19.40
2023-04-09T23:54:24.386Z,21.35
2023-04-09T23:57:27.457Z,19.37
